KJGG

Details ICAO KJGG
Name WILLIAMSBURG JAMESTOWN
Region United States
Timezone America/New_York (UTC-5.0)
Plans Departing 11
Arriving 13
Stats Elevation 49 ft / 15 m (AMSL)
Location 37.239171° -76.716091°
Runways 1
Magnetic Variation 10.682° W
Sunrise 2017-12-15 12:15:05 UTC / 2017-12-15 07:15:05 Local
Sunset 2017-12-15 21:51:56 UTC / 2017-12-15 16:51:56 Local
Advertisement - Login to hide

Runways

ID Width Length Bearing (true) Bearing (mag) Surface Threshold Offset Overrun Length
13 60 ft / 18 m 3,201 ft / 976 m 120.46° 131.14° Asphalt 0 ft / 0 m 0 ft / 0 m
31 60 ft / 18 m 3,201 ft / 976 m 300.47° 311.15° Asphalt 0 ft / 0 m 0 ft / 0 m

Map

Weather


0- 5 10 15 20 25 30 35+ Temperature / ° C

Clouds and Precipitation
Forecast for 2017-12-16 06:00 UTC. Updated 30 minutes ago

Ground ~20,000 ft ~40,000 ft Winds

METAR

KJGG 160135Z AUTO 00000KT 10SM CLR M01/M06 A3003 RMK AO1

TAF

Not found

Frequencies

Recorded 120.62 MHz AWOS 3
Approach 119.45 MHz NORFOLK APP/DEP
Unicom 122.80 MHz CTAF/UNICOM
Warning: Do not use this data for real-world aviation or navigation. No guarantee of current accuracy is given.